Time;durP1;ratioP1;P1;durP2;ratioP2;P2;SDS_P1;SDS_P2;PMS_P1;PMS_P2;Temp;Humidity;BMP_temperature;BMP_pressure;BME280_temperature;BME280_humidity;BME280_pressure;Samples;Min_cycle;Max_cycle;Signal;HPM_P1;HPM_P2
2022/03/25 00:00:12;;;;;;;62.10;39.10;;;;;;;;;;10303599;28;20399;-93
2022/03/25 00:05:14;;;;;;;65.28;40.17;;;;;;;;;;10277066;28;20476;-92
2022/03/25 00:10:16;;;;;;;62.70;41.13;;;;;;;;;;10284395;28;20441;-93
2022/03/25 00:15:20;;;;;;;63.63;41.05;;;;;;;;;;10284197;28;20892;-93
2022/03/25 00:20:22;;;;;;;64.90;41.28;;;;;;;;;;10279990;28;20419;-94
2022/03/25 00:25:23;;;;;;;68.03;43.42;;;;;;;;;;10283463;28;21002;-93
2022/03/25 00:30:28;;;;;;;70.80;43.70;;;;;;;;;;10282351;28;20465;-92
2022/03/25 00:35:29;;;;;;;68.97;42.97;;;;;;;;;;10272906;28;20439;-91
2022/03/25 00:40:32;;;;;;;63.47;41.00;;;;;;;;;;10279020;28;20514;-93
2022/03/25 00:45:35;;;;;;;62.38;40.70;;;;;;;;;;10274580;28;20429;-92
2022/03/25 00:50:38;;;;;;;63.88;40.08;;;;;;;;;;10276927;28;20450;-92
2022/03/25 00:55:40;;;;;;;62.60;41.37;;;;;;;;;;10271828;28;20445;-91
2022/03/25 01:00:43;;;;;;;63.33;39.42;;;;;;;;;;10277042;28;20465;-91
2022/03/25 01:05:45;;;;;;;64.83;39.70;;;;;;;;;;10272723;28;20651;-92
2022/03/25 01:10:47;;;;;;;66.20;40.95;;;;;;;;;;10278412;28;20505;-91
2022/03/25 01:15:51;;;;;;;63.88;39.80;;;;;;;;;;10263356;28;20829;-92
2022/03/25 01:20:53;;;;;;;61.70;39.38;;;;;;;;;;10249586;28;20683;-94
2022/03/25 01:25:55;;;;;;;62.20;40.47;;;;;;;;;;10279415;28;20418;-91
2022/03/25 01:31:00;;;;;;;61.90;40.20;;;;;;;;;;10279609;28;20432;-93
2022/03/25 01:36:03;;;;;;;61.70;39.33;;;;;;;;;;10310769;28;20466;-91
2022/03/25 01:41:06;;;;;;;63.90;40.90;;;;;;;;;;10284816;28;20459;-93
2022/03/25 01:46:09;;;;;;;58.70;40.30;;;;;;;;;;10270713;28;20479;-92
2022/03/25 01:51:11;;;;;;;61.15;39.83;;;;;;;;;;10307926;28;20472;-92
2022/03/25 01:56:20;;;;;;;63.85;40.53;;;;;;;;;;10303990;28;20412;-92
2022/03/25 02:01:25;;;;;;;61.95;40.30;;;;;;;;;;10305005;28;20444;-92
2022/03/25 02:06:27;;;;;;;61.13;40.50;;;;;;;;;;10319499;28;20539;-91
2022/03/25 02:11:30;;;;;;;63.17;40.47;;;;;;;;;;10288372;28;22297;-92
2022/03/25 02:16:38;;;;;;;67.20;43.88;;;;;;;;;;10295101;28;20903;-93
2022/03/25 02:21:42;;;;;;;63.83;43.20;;;;;;;;;;10293130;28;20532;-92
2022/03/25 02:26:45;;;;;;;65.18;42.47;;;;;;;;;;10242177;28;20482;-94
2022/03/25 02:31:47;;;;;;;57.50;40.42;;;;;;;;;;10312454;28;21283;-92
2022/03/25 02:36:50;;;;;;;60.35;38.92;;;;;;;;;;10251395;28;20991;-92
2022/03/25 02:41:53;;;;;;;58.00;37.28;;;;;;;;;;10271229;28;20417;-92
2022/03/25 02:46:55;;;;;;;58.40;38.10;;;;;;;;;;10264232;28;20430;-92
2022/03/25 02:51:58;;;;;;;55.88;36.83;;;;;;;;;;10269032;28;20410;-92
2022/03/25 02:57:00;;;;;;;54.22;36.20;;;;;;;;;;10270829;28;21066;-92
2022/03/25 03:02:02;;;;;;;56.75;36.63;;;;;;;;;;10270456;28;20760;-93
2022/03/25 03:07:06;;;;;;;55.97;37.10;;;;;;;;;;10271635;28;20485;-91
2022/03/25 03:12:08;;;;;;;55.73;37.63;;;;;;;;;;10290544;28;20410;-93
2022/03/25 03:17:11;;;;;;;58.05;37.55;;;;;;;;;;10318845;28;20402;-93
2022/03/25 03:22:14;;;;;;;55.72;37.45;;;;;;;;;;10280039;28;20479;-93
2022/03/25 03:27:17;;;;;;;58.03;37.88;;;;;;;;;;10268974;28;20580;-93
2022/03/25 03:32:19;;;;;;;56.03;37.28;;;;;;;;;;10286449;28;20434;-93
2022/03/25 03:37:23;;;;;;;55.87;37.17;;;;;;;;;;10286155;28;20437;-93
2022/03/25 03:42:25;;;;;;;54.90;36.77;;;;;;;;;;10285089;28;20421;-93
2022/03/25 03:47:26;;;;;;;52.20;35.85;;;;;;;;;;10284998;28;20437;-93
2022/03/25 03:52:31;;;;;;;55.80;37.37;;;;;;;;;;10268636;28;20411;-93
2022/03/25 03:57:33;;;;;;;51.87;36.87;;;;;;;;;;10267261;28;20414;-93
2022/03/25 04:02:35;;;;;;;54.25;35.42;;;;;;;;;;10284726;28;20425;-92
2022/03/25 04:07:42;;;;;;;56.20;36.00;;;;;;;;;;10284359;28;20441;-92
2022/03/25 04:12:45;;;;;;;54.57;36.57;;;;;;;;;;10267492;28;20935;-92
2022/03/25 04:17:47;;;;;;;53.03;35.30;;;;;;;;;;10284294;28;20411;-92
2022/03/25 04:22:50;;;;;;;50.65;34.97;;;;;;;;;;10284369;28;20521;-93
2022/03/25 04:27:54;;;;;;;51.08;34.58;;;;;;;;;;10284065;28;20501;-91
2022/03/25 04:32:57;;;;;;;50.00;34.30;;;;;;;;;;10283865;28;20438;-93
2022/03/25 04:38:01;;;;;;;47.07;31.90;;;;;;;;;;10283814;28;20410;-91
2022/03/25 04:43:04;;;;;;;50.17;33.63;;;;;;;;;;10283497;28;20502;-91
2022/03/25 04:48:07;;;;;;;48.05;32.03;;;;;;;;;;10265940;28;20453;-91
2022/03/25 04:53:10;;;;;;;50.83;33.28;;;;;;;;;;10283691;28;20422;-92
2022/03/25 04:58:12;;;;;;;48.90;32.63;;;;;;;;;;10284150;28;20429;-93
2022/03/25 05:03:14;;;;;;;45.80;31.67;;;;;;;;;;10267184;28;20461;-92
2022/03/25 05:08:18;;;;;;;48.03;31.42;;;;;;;;;;10300792;28;20429;-91
2022/03/25 05:13:21;;;;;;;46.17;32.17;;;;;;;;;;10316163;28;20406;-93
2022/03/25 05:18:24;;;;;;;46.17;32.00;;;;;;;;;;10267535;28;20406;-91
2022/03/25 05:23:27;;;;;;;46.50;31.52;;;;;;;;;;10248149;28;20422;-91
2022/03/25 05:28:29;;;;;;;47.35;31.38;;;;;;;;;;10261515;28;20894;-91
2022/03/25 05:33:32;;;;;;;51.15;30.85;;;;;;;;;;10262675;28;20404;-92
2022/03/25 05:38:35;;;;;;;51.72;31.38;;;;;;;;;;10263237;28;20506;-93
2022/03/25 05:43:37;;;;;;;51.53;31.25;;;;;;;;;;10268526;28;20420;-92
2022/03/25 05:48:39;;;;;;;49.80;30.70;;;;;;;;;;10264717;28;20438;-91
2022/03/25 05:53:43;;;;;;;52.97;32.10;;;;;;;;;;10283270;28;20415;-91
2022/03/25 05:58:44;;;;;;;52.00;32.33;;;;;;;;;;10290293;28;20448;-90
2022/03/25 06:03:46;;;;;;;55.97;31.52;;;;;;;;;;10281147;28;20418;-93
2022/03/25 06:08:50;;;;;;;50.10;30.83;;;;;;;;;;10288973;28;20937;-92
2022/03/25 06:13:52;;;;;;;45.25;28.60;;;;;;;;;;10254100;28;20478;-92
2022/03/25 06:18:55;;;;;;;41.35;26.20;;;;;;;;;;10273519;28;20483;-91
2022/03/25 06:23:59;;;;;;;40.15;26.42;;;;;;;;;;10298746;28;20392;-93
2022/03/25 06:29:03;;;;;;;42.28;26.63;;;;;;;;;;10280402;28;20514;-93
2022/03/25 06:34:05;;;;;;;41.80;27.52;;;;;;;;;;10265877;28;20414;-90
2022/03/25 06:39:12;;;;;;;43.35;26.70;;;;;;;;;;10244702;28;20787;-96
2022/03/25 06:44:14;;;;;;;40.90;26.23;;;;;;;;;;10277390;28;20457;-90
2022/03/25 06:49:17;;;;;;;41.63;26.67;;;;;;;;;;10271611;28;20429;-90
2022/03/25 06:54:21;;;;;;;41.42;25.90;;;;;;;;;;10292949;28;20405;-93
2022/03/25 06:59:24;;;;;;;41.10;24.80;;;;;;;;;;10279594;28;20652;-92
2022/03/25 07:04:26;;;;;;;37.38;24.10;;;;;;;;;;10278925;28;20537;-93
2022/03/25 07:09:31;;;;;;;38.40;24.40;;;;;;;;;;10274179;28;20457;-96
2022/03/25 07:14:33;;;;;;;36.15;23.77;;;;;;;;;;10284494;28;20498;-93
2022/03/25 07:19:35;;;;;;;40.53;25.50;;;;;;;;;;10270959;28;20406;-91
2022/03/25 07:24:39;;;;;;;38.35;25.30;;;;;;;;;;10283207;28;20410;-92
2022/03/25 07:29:41;;;;;;;39.75;25.63;;;;;;;;;;10273889;28;20461;-92
2022/03/25 07:34:43;;;;;;;37.05;25.20;;;;;;;;;;10245711;28;20406;-92
2022/03/25 07:39:46;;;;;;;37.90;24.37;;;;;;;;;;10278336;28;20866;-91
2022/03/25 07:44:49;;;;;;;40.20;25.65;;;;;;;;;;10260882;28;20408;-92
2022/03/25 07:49:51;;;;;;;41.22;25.10;;;;;;;;;;10277808;28;20915;-92
2022/03/25 07:54:56;;;;;;;39.08;23.38;;;;;;;;;;10274183;28;20833;-92
2022/03/25 07:59:58;;;;;;;34.63;22.85;;;;;;;;;;10278259;28;20418;-91
2022/03/25 08:05:01;;;;;;;31.80;21.67;;;;;;;;;;10278102;28;20422;-91
2022/03/25 08:10:04;;;;;;;33.40;23.23;;;;;;;;;;10273044;28;20431;-91
2022/03/25 08:15:07;;;;;;;36.60;23.05;;;;;;;;;;10277786;28;20410;-91
2022/03/25 08:20:10;;;;;;;37.42;25.05;;;;;;;;;;10276382;28;20433;-90
2022/03/25 08:30:33;;;;;;;34.28;24.70;;;;;;;;;;10274389;28;20883;-91
2022/03/25 08:35:36;;;;;;;40.60;25.53;;;;;;;;;;10255176;28;20425;-93
2022/03/25 08:40:41;;;;;;;42.72;27.20;;;;;;;;;;10277302;28;20525;-91
2022/03/25 08:45:43;;;;;;;40.33;27.53;;;;;;;;;;10277167;28;20444;-91
2022/03/25 08:50:44;;;;;;;37.50;27.50;;;;;;;;;;10281165;28;20493;-92
2022/03/25 08:55:48;;;;;;;39.55;27.48;;;;;;;;;;10280821;28;20438;-91
2022/03/25 09:00:50;;;;;;;40.28;28.60;;;;;;;;;;10285421;28;20422;-91
2022/03/25 09:05:52;;;;;;;44.37;28.37;;;;;;;;;;10288751;28;20493;-92
2022/03/25 09:10:57;;;;;;;43.65;29.83;;;;;;;;;;10284062;28;20947;-91
2022/03/25 09:15:59;;;;;;;44.70;29.75;;;;;;;;;;10284751;28;20406;-93
2022/03/25 09:21:01;;;;;;;48.03;31.53;;;;;;;;;;10280208;28;20501;-91
2022/03/25 09:26:04;;;;;;;50.75;31.50;;;;;;;;;;10280192;28;20428;-92
2022/03/25 09:31:06;;;;;;;51.20;31.73;;;;;;;;;;10284262;28;20437;-92
2022/03/25 09:36:09;;;;;;;47.33;31.27;;;;;;;;;;10310307;28;20403;-91
2022/03/25 09:41:12;;;;;;;54.30;33.03;;;;;;;;;;10323431;28;21303;-93
2022/03/25 09:46:14;;;;;;;54.05;34.35;;;;;;;;;;10288600;28;20758;-92
2022/03/25 09:51:17;;;;;;;50.80;33.03;;;;;;;;;;10283073;28;20497;-92
2022/03/25 09:56:20;;;;;;;51.72;32.92;;;;;;;;;;10287327;28;20513;-92
2022/03/25 10:01:22;;;;;;;52.90;33.37;;;;;;;;;;10282061;28;20414;-92
2022/03/25 10:06:24;;;;;;;53.67;34.25;;;;;;;;;;10237639;28;20411;-91
2022/03/25 10:11:30;;;;;;;49.65;32.45;;;;;;;;;;10270481;28;20418;-92
2022/03/25 10:16:32;;;;;;;44.50;30.17;;;;;;;;;;10291138;28;20838;-91
2022/03/25 10:21:51;;;;;;;44.50;30.20;;;;;;;;;;10292474;28;20453;-88
2022/03/25 10:27:06;;;;;;;49.77;31.10;;;;;;;;;;10324553;28;20410;-90
2022/03/25 10:32:09;;;;;;;48.35;30.40;;;;;;;;;;10253588;28;20952;-87
2022/03/25 10:37:13;;;;;;;46.50;29.98;;;;;;;;;;10244593;28;20424;-88
2022/03/25 10:42:18;;;;;;;46.83;30.13;;;;;;;;;;10263740;28;20422;-89
2022/03/25 10:47:29;;;;;;;48.93;30.83;;;;;;;;;;10285070;28;20434;-87
2022/03/25 10:52:34;;;;;;;48.50;30.97;;;;;;;;;;10262942;28;20419;-89
2022/03/25 10:57:51;;;;;;;41.47;28.53;;;;;;;;;;10260947;28;20417;-89
2022/03/25 11:02:54;;;;;;;43.22;29.42;;;;;;;;;;10284098;28;20527;-90
2022/03/25 11:07:57;;;;;;;43.65;28.80;;;;;;;;;;10272933;28;20506;-90
2022/03/25 11:13:03;;;;;;;38.25;27.02;;;;;;;;;;10261026;28;20418;-93
2022/03/25 11:18:05;;;;;;;43.25;27.60;;;;;;;;;;10259154;28;20645;-93
2022/03/25 11:23:14;;;;;;;39.07;27.43;;;;;;;;;;10266851;28;20402;-92
2022/03/25 11:28:19;;;;;;;40.53;27.08;;;;;;;;;;10267947;28;20422;-94
2022/03/25 11:33:21;;;;;;;39.30;26.58;;;;;;;;;;10273772;28;20420;-94
2022/03/25 11:38:23;;;;;;;42.65;28.08;;;;;;;;;;10279627;28;20414;-94
2022/03/25 11:43:28;;;;;;;42.28;28.25;;;;;;;;;;10268194;28;20498;-93
2022/03/25 11:48:41;;;;;;;41.88;27.55;;;;;;;;;;10279162;28;20430;-93
2022/03/25 11:53:43;;;;;;;37.97;25.95;;;;;;;;;;10271821;28;20410;-93
2022/03/25 11:59:01;;;;;;;34.08;25.15;;;;;;;;;;10262165;28;20395;-92
2022/03/25 12:04:03;;;;;;;37.17;26.13;;;;;;;;;;10287406;28;20461;-93
2022/03/25 12:09:15;;;;;;;38.45;26.23;;;;;;;;;;10277737;28;21470;-93
2022/03/25 12:14:20;;;;;;;35.10;25.87;;;;;;;;;;10282868;28;20505;-89
2022/03/25 12:20:00;;;;;;;41.72;27.15;;;;;;;;;;10256063;28;20412;-94
2022/03/25 12:25:25;;;;;;;41.40;28.55;;;;;;;;;;10274284;28;20837;-94
2022/03/25 12:30:37;;;;;;;41.03;28.02;;;;;;;;;;10260115;28;20432;-94
2022/03/25 12:35:39;;;;;;;35.07;25.03;;;;;;;;;;10253402;28;20411;-94
2022/03/25 12:40:41;;;;;;;38.50;26.80;;;;;;;;;;10257546;28;20427;-93
2022/03/25 12:45:46;;;;;;;38.88;27.13;;;;;;;;;;10261268;28;20489;-93
2022/03/25 12:50:50;;;;;;;39.60;26.30;;;;;;;;;;10262045;28;20517;-94
2022/03/25 12:55:53;;;;;;;38.65;27.77;;;;;;;;;;10243321;28;20406;-94
2022/03/25 13:00:58;;;;;;;41.67;27.30;;;;;;;;;;10264182;28;20953;-94
2022/03/25 13:06:10;;;;;;;39.45;28.02;;;;;;;;;;10253167;28;20460;-94
2022/03/25 13:11:14;;;;;;;37.43;26.30;;;;;;;;;;10250788;28;20463;-95
2022/03/25 13:16:17;;;;;;;39.75;29.35;;;;;;;;;;10256331;28;20455;-94
2022/03/25 13:21:20;;;;;;;38.22;27.48;;;;;;;;;;10240898;28;20415;-94
2022/03/25 13:26:27;;;;;;;39.77;27.97;;;;;;;;;;10261659;28;20420;-93
2022/03/25 13:31:31;;;;;;;42.90;28.52;;;;;;;;;;10253777;28;20497;-94
2022/03/25 13:36:35;;;;;;;43.40;28.97;;;;;;;;;;10266096;28;20434;-92
2022/03/25 13:41:37;;;;;;;41.28;28.20;;;;;;;;;;10270116;28;21205;-92
2022/03/25 13:46:42;;;;;;;40.00;26.63;;;;;;;;;;10273129;28;20412;-91
2022/03/25 13:51:45;;;;;;;38.40;26.90;;;;;;;;;;10269351;28;20498;-92
2022/03/25 13:56:49;;;;;;;35.73;27.63;;;;;;;;;;10267886;28;20414;-94
2022/03/25 14:01:53;;;;;;;39.23;28.03;;;;;;;;;;10289653;28;20413;-91
2022/03/25 14:06:56;;;;;;;38.40;27.70;;;;;;;;;;10303058;28;20438;-91
2022/03/25 14:12:00;;;;;;;37.25;27.48;;;;;;;;;;10244090;28;20933;-91
2022/03/25 14:17:09;;;;;;;41.85;28.48;;;;;;;;;;10278866;28;20528;-91
2022/03/25 14:22:11;;;;;;;38.03;28.23;;;;;;;;;;10277405;28;20970;-91
2022/03/25 14:27:13;;;;;;;36.97;27.48;;;;;;;;;;10272004;28;20542;-91
2022/03/25 14:32:17;;;;;;;38.63;27.85;;;;;;;;;;10261814;28;20410;-91
2022/03/25 14:37:20;;;;;;;43.83;28.30;;;;;;;;;;10274086;28;20954;-93
2022/03/25 14:42:22;;;;;;;38.77;27.40;;;;;;;;;;10267326;28;20428;-94
2022/03/25 14:47:26;;;;;;;39.00;27.20;;;;;;;;;;10243751;28;20430;-94
2022/03/25 14:52:29;;;;;;;36.43;27.33;;;;;;;;;;10274331;28;20513;-94
2022/03/25 14:57:31;;;;;;;42.65;28.38;;;;;;;;;;10288191;28;20795;-93
2022/03/25 15:02:35;;;;;;;40.08;28.73;;;;;;;;;;10255477;28;20501;-93
2022/03/25 15:07:37;;;;;;;40.63;28.10;;;;;;;;;;10288491;28;20426;-95
2022/03/25 15:12:40;;;;;;;36.08;27.20;;;;;;;;;;10283794;28;20425;-94
2022/03/25 15:17:45;;;;;;;37.80;26.40;;;;;;;;;;10287290;28;20633;-93
2022/03/25 15:22:47;;;;;;;35.70;26.42;;;;;;;;;;10273260;28;21193;-93
2022/03/25 15:27:49;;;;;;;34.63;25.48;;;;;;;;;;10272363;28;20444;-92
2022/03/25 15:38:26;;;;;;;35.60;26.20;;;;;;;;;;10261357;28;20407;-95
2022/03/25 15:43:28;;;;;;;33.87;24.60;;;;;;;;;;10308820;28;20417;-93
2022/03/25 15:48:31;;;;;;;35.33;25.85;;;;;;;;;;10256901;28;20462;-93
2022/03/25 15:53:33;;;;;;;32.67;23.53;;;;;;;;;;10263124;28;20412;-93
2022/03/25 15:58:35;;;;;;;33.87;22.83;;;;;;;;;;10265317;28;21134;-92
2022/03/25 16:03:38;;;;;;;32.43;23.67;;;;;;;;;;10277701;28;21135;-94
2022/03/25 16:08:41;;;;;;;32.75;24.02;;;;;;;;;;10274037;28;20473;-94
2022/03/25 16:13:43;;;;;;;33.63;24.77;;;;;;;;;;10265416;28;20420;-92
2022/03/25 16:18:48;;;;;;;32.25;24.20;;;;;;;;;;10269085;28;20418;-93
2022/03/25 16:23:50;;;;;;;33.10;24.77;;;;;;;;;;10310384;28;20475;-92
2022/03/25 16:28:53;;;;;;;33.83;24.70;;;;;;;;;;10288214;28;21279;-94
2022/03/25 16:33:56;;;;;;;30.40;23.30;;;;;;;;;;10286709;28;20434;-94
2022/03/25 16:38:58;;;;;;;32.87;22.87;;;;;;;;;;10274620;28;20428;-90
2022/03/25 16:44:00;;;;;;;33.53;24.40;;;;;;;;;;10268385;28;20509;-92
2022/03/25 16:49:04;;;;;;;33.42;23.58;;;;;;;;;;10286943;28;20453;-91
2022/03/25 16:54:06;;;;;;;34.08;24.08;;;;;;;;;;10282136;28;20456;-91
2022/03/25 16:59:08;;;;;;;33.83;24.08;;;;;;;;;;10266251;28;20523;-90
2022/03/25 17:04:12;;;;;;;32.53;23.02;;;;;;;;;;10265238;28;20931;-91
2022/03/25 17:09:14;;;;;;;35.75;23.63;;;;;;;;;;10268207;28;20529;-92
2022/03/25 17:14:16;;;;;;;34.85;23.42;;;;;;;;;;10272968;28;20910;-91
2022/03/25 17:19:19;;;;;;;36.22;24.35;;;;;;;;;;10272415;28;20555;-92
2022/03/25 17:24:21;;;;;;;39.88;27.05;;;;;;;;;;10259511;28;20434;-93
2022/03/25 17:29:23;;;;;;;46.92;28.65;;;;;;;;;;10271682;28;20434;-92
2022/03/25 17:34:27;;;;;;;43.27;28.30;;;;;;;;;;10267818;28;20462;-93
2022/03/25 17:39:30;;;;;;;43.95;28.35;;;;;;;;;;10272967;28;20479;-91
2022/03/25 17:44:32;;;;;;;42.88;27.92;;;;;;;;;;10273095;28;20783;-92
2022/03/25 17:49:35;;;;;;;44.30;27.33;;;;;;;;;;10270596;28;20500;-94
2022/03/25 17:54:37;;;;;;;42.45;27.02;;;;;;;;;;10265402;28;20497;-93
2022/03/25 17:59:39;;;;;;;37.67;24.30;;;;;;;;;;10271262;28;20418;-92
2022/03/25 18:04:43;;;;;;;35.92;23.77;;;;;;;;;;10281058;28;20422;-91
2022/03/25 18:09:45;;;;;;;37.53;22.67;;;;;;;;;;10292406;28;20501;-93
2022/03/25 18:14:47;;;;;;;33.72;21.38;;;;;;;;;;10296178;28;20418;-93
2022/03/25 18:19:51;;;;;;;36.60;22.80;;;;;;;;;;10268481;28;20514;-93
2022/03/25 18:24:53;;;;;;;33.83;22.27;;;;;;;;;;10274874;28;20509;-93
2022/03/25 18:29:56;;;;;;;32.80;22.15;;;;;;;;;;10270488;28;20562;-91
2022/03/25 18:34:59;;;;;;;36.07;23.23;;;;;;;;;;10265888;28;20452;-93
2022/03/25 18:40:01;;;;;;;33.63;22.20;;;;;;;;;;10257699;28;20788;-91
2022/03/25 18:45:04;;;;;;;32.45;21.75;;;;;;;;;;10277453;28;20430;-91
2022/03/25 18:50:09;;;;;;;32.92;22.17;;;;;;;;;;10278810;28;20921;-91
2022/03/25 18:55:11;;;;;;;34.83;23.05;;;;;;;;;;10281653;28;20431;-92
2022/03/25 19:00:14;;;;;;;34.90;23.17;;;;;;;;;;10282357;28;20514;-91
2022/03/25 19:05:19;;;;;;;39.95;24.17;;;;;;;;;;10267397;28;20416;-91
2022/03/25 19:10:21;;;;;;;40.28;25.92;;;;;;;;;;10283533;28;20526;-92
2022/03/25 19:15:23;;;;;;;40.72;24.85;;;;;;;;;;10268471;28;20402;-92
2022/03/25 19:20:26;;;;;;;39.77;25.57;;;;;;;;;;10282386;28;20765;-91
2022/03/25 19:25:28;;;;;;;42.47;25.93;;;;;;;;;;10275361;28;20581;-90
2022/03/25 19:30:33;;;;;;;36.93;24.33;;;;;;;;;;10256567;28;20434;-91
2022/03/25 19:35:37;;;;;;;35.17;24.10;;;;;;;;;;10259701;28;20443;-92
2022/03/25 19:40:39;;;;;;;37.80;23.57;;;;;;;;;;10267834;28;21144;-92
2022/03/25 19:45:41;;;;;;;35.72;23.30;;;;;;;;;;10267840;28;20428;-92
2022/03/25 19:50:44;;;;;;;37.30;24.33;;;;;;;;;;10272708;28;20838;-91
2022/03/25 19:55:49;;;;;;;39.40;26.07;;;;;;;;;;10274789;28;20499;-94
2022/03/25 20:00:52;;;;;;;39.38;27.77;;;;;;;;;;10267931;28;20506;-92
2022/03/25 20:05:56;;;;;;;39.08;26.10;;;;;;;;;;10282995;28;20424;-92
2022/03/25 20:10:58;;;;;;;40.40;26.65;;;;;;;;;;10287883;28;20524;-92
2022/03/25 20:16:00;;;;;;;45.15;28.17;;;;;;;;;;10274171;28;20482;-92
2022/03/25 20:21:03;;;;;;;42.30;27.17;;;;;;;;;;10277767;28;20913;-91
2022/03/25 20:26:06;;;;;;;41.00;27.40;;;;;;;;;;10278877;28;20962;-93
2022/03/25 20:31:09;;;;;;;42.78;28.40;;;;;;;;;;10305468;28;20524;-94
2022/03/25 20:36:13;;;;;;;47.88;29.92;;;;;;;;;;10291520;28;20515;-92
2022/03/25 20:41:15;;;;;;;48.00;29.98;;;;;;;;;;10254620;28;20787;-92
2022/03/25 20:46:17;;;;;;;54.30;34.15;;;;;;;;;;10265825;28;20438;-91
2022/03/25 20:51:20;;;;;;;53.45;33.35;;;;;;;;;;10290183;28;20429;-92
2022/03/25 20:56:23;;;;;;;55.78;34.45;;;;;;;;;;10270167;28;20508;-93
2022/03/25 21:01:25;;;;;;;60.83;38.77;;;;;;;;;;10274988;28;20485;-91
2022/03/25 21:06:29;;;;;;;64.97;39.65;;;;;;;;;;10264896;28;20465;-92
2022/03/25 21:11:31;;;;;;;66.00;41.97;;;;;;;;;;10265664;28;20434;-92
2022/03/25 21:16:33;;;;;;;64.72;41.25;;;;;;;;;;10267523;28;20508;-92
2022/03/25 21:21:38;;;;;;;67.55;43.35;;;;;;;;;;10262087;28;20424;-92
2022/03/25 21:26:40;;;;;;;65.80;42.72;;;;;;;;;;10256714;28;20428;-92
2022/03/25 21:31:42;;;;;;;76.27;46.13;;;;;;;;;;10262203;28;20530;-94
2022/03/25 21:36:45;;;;;;;75.05;46.08;;;;;;;;;;10254186;28;21043;-91
2022/03/25 21:41:49;;;;;;;75.40;46.60;;;;;;;;;;10267340;28;20413;-91
2022/03/25 21:46:51;;;;;;;76.15;45.80;;;;;;;;;;10254867;28;20424;-93
2022/03/25 21:51:56;;;;;;;73.23;45.50;;;;;;;;;;10269883;28;20528;-95
2022/03/25 21:56:58;;;;;;;76.77;48.50;;;;;;;;;;10296242;28;20682;-91
2022/03/25 22:02:00;;;;;;;68.78;45.28;;;;;;;;;;10298712;28;20513;-92
2022/03/25 22:07:05;;;;;;;78.32;47.72;;;;;;;;;;10307855;28;20421;-90
2022/03/25 22:12:09;;;;;;;74.60;45.88;;;;;;;;;;10276541;28;20522;-91
2022/03/25 22:17:11;;;;;;;75.22;46.67;;;;;;;;;;10278408;28;21036;-90
2022/03/25 22:22:15;;;;;;;77.70;47.60;;;;;;;;;;10265446;28;20419;-92
2022/03/25 22:27:17;;;;;;;74.72;45.53;;;;;;;;;;10280817;28;20502;-90
2022/03/25 22:32:20;;;;;;;73.88;46.53;;;;;;;;;;10290553;28;20537;-91
2022/03/25 22:37:23;;;;;;;76.30;46.50;;;;;;;;;;10302854;28;20770;-91
2022/03/25 22:42:25;;;;;;;71.35;45.97;;;;;;;;;;10267443;28;20758;-91
2022/03/25 22:47:27;;;;;;;77.72;47.80;;;;;;;;;;10280527;28;20909;-92
2022/03/25 22:52:31;;;;;;;73.57;48.23;;;;;;;;;;10275783;28;20432;-89
2022/03/25 22:57:34;;;;;;;74.60;46.47;;;;;;;;;;10271037;28;20449;-92
2022/03/25 23:02:35;;;;;;;78.27;48.07;;;;;;;;;;10280685;28;20552;-93
2022/03/25 23:07:39;;;;;;;77.45;47.50;;;;;;;;;;10281717;28;20446;-91
2022/03/25 23:12:41;;;;;;;76.60;48.47;;;;;;;;;;10280986;28;20424;-93
2022/03/25 23:17:43;;;;;;;75.60;47.40;;;;;;;;;;10258092;28;20932;-90
2022/03/25 23:22:47;;;;;;;76.60;47.17;;;;;;;;;;10271063;28;20455;-91
2022/03/25 23:27:48;;;;;;;73.35;44.88;;;;;;;;;;10290969;28;20940;-92
2022/03/25 23:32:50;;;;;;;74.40;44.47;;;;;;;;;;10290206;28;20515;-91
2022/03/25 23:37:55;;;;;;;69.28;42.42;;;;;;;;;;10300226;28;20496;-90
2022/03/25 23:42:57;;;;;;;68.30;42.77;;;;;;;;;;10286951;28;20413;-92
2022/03/25 23:47:59;;;;;;;68.77;41.53;;;;;;;;;;10285751;28;20449;-91
2022/03/25 23:53:02;;;;;;;60.60;39.30;;;;;;;;;;10324026;28;20453;-90
2022/03/25 23:58:05;;;;;;;61.80;38.67;;;;;;;;;;10319478;28;20487;-90
